Time;durP1;ratioP1;P1;durP2;ratioP2;P2;SDS_P1;SDS_P2;PMS_P1;PMS_P2;Temp;Humidity;BMP_temperature;BMP_pressure;BME280_temperature;BME280_humidity;BME280_pressure;Samples;Min_cycle;Max_cycle;Signal;HPM_P1;HPM_P2
2022/04/20 00:00:34;;;;;;;4.72;3.83;;;7.30;99.90;;;;;;4936278;29;20265;-68
2022/04/20 00:03:00;;;;;;;3.42;3.25;;;7.30;99.90;;;;;;4935330;29;20221;-69
2022/04/20 00:05:27;;;;;;;4.75;4.45;;;7.30;99.90;;;;;;4935578;29;20269;-69
2022/04/20 00:07:54;;;;;;;4.88;4.45;;;7.30;99.90;;;;;;4934245;29;20297;-70
2022/04/20 00:10:21;;;;;;;5.10;4.70;;;7.30;99.90;;;;;;4924565;29;20233;-69
2022/04/20 00:12:47;;;;;;;4.28;3.97;;;7.20;99.90;;;;;;4915133;29;20221;-69
2022/04/20 00:15:14;;;;;;;4.00;3.78;;;7.20;99.90;;;;;;4923225;29;20903;-69
2022/04/20 00:17:42;;;;;;;4.68;4.40;;;7.20;99.90;;;;;;4915842;29;20221;-69
2022/04/20 00:20:10;;;;;;;4.78;4.38;;;7.10;99.90;;;;;;4932575;29;20342;-69
2022/04/20 00:22:36;;;;;;;6.28;4.30;;;7.10;99.90;;;;;;4933094;29;20214;-69
2022/04/20 00:25:04;;;;;;;4.25;3.95;;;7.00;99.90;;;;;;4933105;29;20209;-68
2022/04/20 00:27:33;;;;;;;4.70;4.20;;;7.00;99.90;;;;;;4933364;29;20281;-69
2022/04/20 00:30:00;;;;;;;4.97;4.32;;;7.00;99.90;;;;;;4932732;29;20340;-69
2022/04/20 00:32:26;;;;;;;5.15;3.90;;;6.90;99.90;;;;;;4933687;29;20214;-69
2022/04/20 00:34:54;;;;;;;4.75;4.35;;;6.90;99.90;;;;;;4933166;29;20293;-68
2022/04/20 00:37:21;;;;;;;4.97;4.45;;;6.90;99.90;;;;;;4933307;29;20202;-69
2022/04/20 00:39:48;;;;;;;4.93;4.43;;;6.80;99.90;;;;;;4933045;29;20230;-69
2022/04/20 00:42:15;;;;;;;5.38;4.07;;;6.80;99.90;;;;;;4934768;29;20210;-70
2022/04/20 00:44:42;;;;;;;9.32;4.80;;;6.70;99.90;;;;;;4931951;29;20214;-69
2022/04/20 00:47:10;;;;;;;6.47;4.97;;;6.70;99.90;;;;;;4914258;29;20237;-69
2022/04/20 00:49:37;;;;;;;4.90;4.38;;;6.70;99.90;;;;;;4929237;29;20557;-69
2022/04/20 00:52:06;;;;;;;5.10;4.68;;;6.70;99.90;;;;;;4933458;29;20221;-69
2022/04/20 00:54:33;;;;;;;4.97;4.60;;;6.60;99.90;;;;;;4932801;29;20337;-69
2022/04/20 00:57:00;;;;;;;5.40;4.90;;;6.60;99.90;;;;;;4935976;29;20261;-69
2022/04/20 00:59:28;;;;;;;5.50;4.90;;;6.60;99.90;;;;;;4936599;29;20456;-69
2022/04/20 01:01:56;;;;;;;4.50;4.20;;;6.60;99.90;;;;;;4936456;29;20260;-69
2022/04/20 01:04:23;;;;;;;4.90;4.50;;;6.50;99.90;;;;;;4936422;29;20221;-69
2022/04/20 01:06:50;;;;;;;7.22;5.95;;;6.50;99.90;;;;;;4937159;29;20741;-69
2022/04/20 01:09:18;;;;;;;5.70;5.20;;;6.50;99.90;;;;;;4936413;29;20265;-69
2022/04/20 01:11:45;;;;;;;7.28;4.90;;;6.50;99.90;;;;;;4936472;29;20226;-68
2022/04/20 01:14:13;;;;;;;6.45;5.15;;;6.40;99.90;;;;;;4936750;29;20214;-69
2022/04/20 01:16:40;;;;;;;7.25;5.75;;;6.40;99.90;;;;;;4936578;29;20210;-69
2022/04/20 01:19:06;;;;;;;7.70;5.43;;;6.40;99.90;;;;;;4935487;29;20675;-68
2022/04/20 01:21:34;;;;;;;5.22;4.93;;;6.40;99.90;;;;;;4936119;29;20802;-68
2022/04/20 01:24:01;;;;;;;5.80;5.30;;;6.30;99.90;;;;;;4935857;29;20305;-68
2022/04/20 01:26:29;;;;;;;5.72;5.20;;;6.30;99.90;;;;;;4983411;23;20299;-70
2022/04/20 01:28:56;;;;;;;5.53;4.95;;;6.30;99.90;;;;;;4967521;28;20208;-70
2022/04/20 01:31:23;;;;;;;6.22;4.70;;;6.20;99.90;;;;;;4973902;28;20256;-70
2022/04/20 01:33:50;;;;;;;7.70;6.30;;;6.20;99.90;;;;;;4974404;28;20201;-70
2022/04/20 01:36:17;;;;;;;6.30;5.70;;;6.20;99.90;;;;;;4973194;28;20370;-71
2022/04/20 01:38:45;;;;;;;8.35;5.53;;;6.10;99.90;;;;;;4974552;28;20279;-70
2022/04/20 01:41:11;;;;;;;6.35;5.82;;;6.10;99.90;;;;;;4973257;28;20216;-70
2022/04/20 01:43:38;;;;;;;6.45;5.40;;;6.10;99.90;;;;;;4974640;28;20248;-70
2022/04/20 01:46:05;;;;;;;5.72;5.03;;;6.00;99.90;;;;;;4966589;28;20244;-70
2022/04/20 01:48:31;;;;;;;6.18;5.57;;;6.00;99.90;;;;;;4974516;28;20212;-70
2022/04/20 01:53:42;;;;;;;6.00;5.50;;;6.00;99.90;;;;;;4974470;28;20259;-70
2022/04/20 01:56:10;;;;;;;6.28;5.75;;;6.00;99.90;;;;;;4961776;28;20261;-70
2022/04/20 01:58:37;;;;;;;5.38;4.88;;;5.90;99.90;;;;;;4970633;28;20212;-70
2022/04/20 02:02:34;;;;;;;6.70;6.05;;;5.90;99.90;;;;;;4973721;28;20216;-69
2022/04/20 02:03:49;;;;;;;7.95;6.35;;;5.90;99.90;;;;;;4973780;28;20355;-69
2022/04/20 02:06:16;;;;;;;8.77;6.03;;;5.90;99.90;;;;;;4961056;28;20320;-69
2022/04/20 02:08:43;;;;;;;7.47;5.70;;;5.90;99.90;;;;;;4954684;28;20476;-69
2022/04/20 02:11:11;;;;;;;8.20;6.50;;;5.90;99.90;;;;;;4953456;28;20209;-69
2022/04/20 02:13:38;;;;;;;7.22;6.35;;;5.80;99.90;;;;;;4955057;28;20296;-69
2022/04/20 02:16:05;;;;;;;7.28;6.05;;;5.80;99.90;;;;;;4955429;28;20236;-69
2022/04/20 02:18:32;;;;;;;7.35;6.07;;;5.80;99.90;;;;;;4954685;28;20208;-69
2022/04/20 02:20:59;;;;;;;11.30;7.28;;;5.80;99.90;;;;;;4953871;28;20301;-69
2022/04/20 02:23:26;;;;;;;7.85;5.93;;;5.80;99.90;;;;;;4954654;28;20209;-69
2022/04/20 02:25:53;;;;;;;9.05;6.38;;;5.80;99.90;;;;;;4954344;28;20957;-69
2022/04/20 02:28:21;;;;;;;10.25;7.50;;;5.80;99.90;;;;;;4954017;28;20225;-70
2022/04/20 02:30:48;;;;;;;8.18;7.05;;;5.80;99.90;;;;;;4954122;28;20216;-69
2022/04/20 02:33:14;;;;;;;7.05;6.30;;;5.80;99.90;;;;;;4957254;28;20213;-69
2022/04/20 02:35:41;;;;;;;12.02;8.23;;;5.70;99.90;;;;;;4975672;28;20212;-70
2022/04/20 02:38:10;;;;;;;10.05;6.97;;;5.70;99.90;;;;;;4977051;28;20236;-69
2022/04/20 02:40:37;;;;;;;8.10;7.30;;;5.70;99.90;;;;;;4974109;28;20304;-70
2022/04/20 02:43:04;;;;;;;14.43;8.07;;;5.70;99.90;;;;;;4972154;28;20216;-69
2022/04/20 02:45:32;;;;;;;10.50;8.00;;;5.70;99.90;;;;;;4954825;28;20287;-70
2022/04/20 02:48:00;;;;;;;9.20;7.70;;;5.70;99.90;;;;;;4954897;28;20215;-69
2022/04/20 02:50:27;;;;;;;11.63;7.38;;;5.60;99.90;;;;;;4953912;28;20660;-69
2022/04/20 02:52:54;;;;;;;13.90;7.82;;;5.60;99.90;;;;;;4954348;28;20213;-69
2022/04/20 02:55:21;;;;;;;9.10;6.95;;;5.60;99.90;;;;;;4972819;28;20271;-69
2022/04/20 02:57:47;;;;;;;10.77;7.22;;;5.60;99.90;;;;;;4972539;28;20236;-69
2022/04/20 03:00:15;;;;;;;8.68;7.53;;;5.60;99.90;;;;;;4972622;28;20247;-69
2022/04/20 03:02:43;;;;;;;13.55;7.93;;;5.50;99.90;;;;;;4972999;28;20248;-69
2022/04/20 03:05:10;;;;;;;9.48;8.20;;;5.50;99.90;;;;;;4950887;28;20609;-69
2022/04/20 03:07:37;;;;;;;11.73;8.65;;;5.50;99.90;;;;;;4953025;28;20280;-69
2022/04/20 03:10:04;;;;;;;9.20;8.00;;;5.50;99.90;;;;;;4953614;28;20217;-69
2022/04/20 03:12:31;;;;;;;8.65;7.35;;;5.50;99.90;;;;;;4952359;28;20584;-69
2022/04/20 03:14:57;;;;;;;11.63;8.70;;;5.50;99.90;;;;;;4954023;28;20575;-69
2022/04/20 03:17:25;;;;;;;9.35;7.60;;;5.50;99.90;;;;;;4953622;28;20802;-69
2022/04/20 03:19:53;;;;;;;11.95;8.52;;;5.50;99.90;;;;;;4952284;28;20217;-70
2022/04/20 03:22:21;;;;;;;13.43;9.75;;;5.50;99.90;;;;;;4954120;28;20205;-70
2022/04/20 03:24:48;;;;;;;12.88;9.00;;;5.50;99.90;;;;;;4978647;28;20308;-70
2022/04/20 03:27:15;;;;;;;10.88;8.60;;;5.50;99.90;;;;;;4984387;28;20229;-69
2022/04/20 03:29:42;;;;;;;13.85;9.77;;;5.50;99.90;;;;;;4986748;28;20299;-70
2022/04/20 03:32:10;;;;;;;14.45;9.18;;;5.50;99.90;;;;;;4987478;28;20212;-69
2022/04/20 03:34:37;;;;;;;12.38;9.25;;;5.50;99.90;;;;;;4961069;28;20240;-69
2022/04/20 03:37:06;;;;;;;13.00;8.50;;;5.50;99.90;;;;;;4953690;28;20589;-69
2022/04/20 03:39:33;;;;;;;10.90;7.50;;;5.50;99.90;;;;;;4953871;28;20213;-69
2022/04/20 03:42:00;;;;;;;10.43;9.18;;;5.50;99.90;;;;;;4952750;28;20256;-70
2022/04/20 03:44:26;;;;;;;12.43;8.73;;;5.50;99.90;;;;;;4964410;28;20208;-69
2022/04/20 03:46:53;;;;;;;12.75;9.40;;;5.50;99.90;;;;;;4972813;28;20228;-69
2022/04/20 03:49:20;;;;;;;10.70;9.57;;;5.50;99.90;;;;;;4974119;28;20267;-69
2022/04/20 03:51:47;;;;;;;15.43;9.50;;;5.50;99.90;;;;;;4973862;28;20212;-69
2022/04/20 03:54:15;;;;;;;15.27;9.73;;;5.50;99.90;;;;;;4962388;28;20538;-70
2022/04/20 03:59:26;;;;;;;14.90;9.93;;;5.50;99.90;;;;;;4942911;28;20204;-70
2022/04/20 04:01:53;;;;;;;11.55;8.60;;;5.40;99.90;;;;;;4952503;28;20643;-70
2022/04/20 04:04:20;;;;;;;12.68;9.57;;;5.40;99.90;;;;;;4953420;28;20205;-70
2022/04/20 04:06:47;;;;;;;10.32;9.20;;;5.40;99.90;;;;;;4952668;28;20248;-70
2022/04/20 04:09:15;;;;;;;12.75;10.50;;;5.40;99.90;;;;;;4954520;28;20266;-70
2022/04/20 04:11:42;;;;;;;12.40;10.02;;;5.40;99.90;;;;;;4952981;28;20264;-70
2022/04/20 04:14:09;;;;;;;15.25;10.48;;;5.40;99.90;;;;;;4962850;28;20220;-70
2022/04/20 04:16:37;;;;;;;16.05;10.05;;;5.40;99.90;;;;;;4974361;28;20235;-70
2022/04/20 04:19:04;;;;;;;13.90;10.20;;;5.40;99.90;;;;;;4974391;28;20295;-70
2022/04/20 04:21:31;;;;;;;11.77;8.77;;;5.40;99.90;;;;;;4973829;28;20208;-70
2022/04/20 04:23:58;;;;;;;14.35;9.38;;;5.40;99.90;;;;;;4966014;28;20216;-70
2022/04/20 04:26:28;;;;;;;14.70;10.23;;;5.40;99.90;;;;;;4951698;28;21064;-70
2022/04/20 04:28:54;;;;;;;16.08;10.45;;;5.40;99.90;;;;;;4952277;28;20213;-70
2022/04/20 04:31:21;;;;;;;14.68;11.35;;;5.40;99.90;;;;;;4951532;28;20216;-70
2022/04/20 04:33:48;;;;;;;14.50;9.23;;;5.40;99.90;;;;;;4951681;28;20205;-70
2022/04/20 04:36:14;;;;;;;11.68;10.32;;;5.50;99.90;;;;;;4952131;28;20606;-70
2022/04/20 04:38:41;;;;;;;11.95;9.32;;;5.50;99.90;;;;;;4952357;28;20233;-70
2022/04/20 04:41:08;;;;;;;13.70;10.35;;;5.50;99.90;;;;;;4950971;28;20264;-70
2022/04/20 04:43:36;;;;;;;14.68;9.75;;;5.60;99.90;;;;;;4953412;28;20256;-70
2022/04/20 04:48:48;;;;;;;16.33;11.27;;;5.80;99.90;;;;;;4952097;29;20212;-70
2022/04/20 04:51:16;;;;;;;12.95;11.07;;;6.30;99.90;;;;;;4951060;28;20709;-70
2022/04/20 04:53:44;;;;;;;12.27;9.40;;;6.90;99.90;;;;;;4951837;28;20205;-70
2022/04/20 04:56:11;;;;;;;12.68;8.90;;;7.30;99.90;;;;;;4951058;28;20251;-70
2022/04/20 04:58:39;;;;;;;12.02;10.82;;;7.70;99.90;;;;;;4952509;28;20710;-70
2022/04/20 05:01:05;;;;;;;10.23;9.32;;;7.80;99.90;;;;;;4959189;28;20208;-70
2022/04/20 05:03:32;;;;;;;10.40;9.32;;;7.90;99.90;;;;;;4971384;28;20220;-70
2022/04/20 05:05:59;;;;;;;11.38;10.13;;;8.00;99.90;;;;;;4971149;28;20320;-70
2022/04/20 05:08:25;;;;;;;13.82;10.00;;;8.00;99.90;;;;;;4971094;28;20205;-70
2022/04/20 05:10:52;;;;;;;10.82;9.65;;;8.10;99.90;;;;;;4964692;28;20240;-71
2022/04/20 05:13:19;;;;;;;14.90;9.18;;;8.20;99.90;;;;;;4951301;28;20250;-71
2022/04/20 05:15:47;;;;;;;10.15;8.00;;;8.20;99.90;;;;;;4950821;28;20213;-71
2022/04/20 05:18:14;;;;;;;10.07;9.07;;;8.20;99.90;;;;;;4951911;28;20217;-72
2022/04/20 05:20:40;;;;;;;10.88;9.00;;;8.20;99.90;;;;;;4951876;28;20198;-71
2022/04/20 05:23:08;;;;;;;11.48;8.02;;;8.00;99.90;;;;;;4951962;28;20236;-70
2022/04/20 05:25:34;;;;;;;12.35;9.95;;;7.80;99.90;;;;;;4952111;28;20300;-70
2022/04/20 05:28:01;;;;;;;10.93;9.60;;;7.70;99.90;;;;;;4950937;28;20304;-69
2022/04/20 05:30:28;;;;;;;10.88;8.88;;;7.50;99.90;;;;;;4953610;28;20212;-69
2022/04/20 05:32:56;;;;;;;13.05;9.27;;;7.40;99.90;;;;;;4971527;28;20829;-71
2022/04/20 05:35:23;;;;;;;10.95;9.25;;;7.40;99.90;;;;;;4971229;28;20585;-71
2022/04/20 05:43:19;;;;;;;9.27;8.35;;;7.40;99.90;;;;;;4972883;28;20704;-70
2022/04/20 05:45:45;;;;;;;10.73;9.63;;;7.20;99.90;;;;;;4974339;28;20216;-70
2022/04/20 05:48:14;;;;;;;11.23;10.02;;;7.30;99.90;;;;;;4974604;28;20216;-71
2022/04/20 05:50:41;;;;;;;12.70;9.75;;;7.40;99.90;;;;;;4972370;28;20201;-69
2022/04/20 05:53:08;;;;;;;13.93;9.32;;;7.50;99.90;;;;;;4974590;28;20212;-72
2022/04/20 05:55:34;;;;;;;12.60;9.27;;;7.50;99.90;;;;;;4974927;28;20208;-72
2022/04/20 05:58:01;;;;;;;10.38;9.38;;;7.50;99.90;;;;;;4975770;28;20263;-70
2022/04/20 06:00:28;;;;;;;10.57;8.38;;;7.60;99.90;;;;;;4975722;28;20204;-71
2022/04/20 06:02:55;;;;;;;9.88;8.63;;;7.60;99.90;;;;;;4959444;28;20347;-70
2022/04/20 06:05:24;;;;;;;13.52;10.30;;;7.60;99.90;;;;;;4951745;28;20289;-70
2022/04/20 06:07:51;;;;;;;12.77;9.68;;;7.50;99.90;;;;;;4962177;28;20264;-73
2022/04/20 06:10:17;;;;;;;11.65;9.38;;;7.80;99.90;;;;;;4974923;28;20615;-71
2022/04/20 06:12:44;;;;;;;8.82;8.00;;;8.30;99.90;;;;;;4974521;28;20208;-71
2022/04/20 06:15:11;;;;;;;9.10;8.30;;;9.10;99.90;;;;;;4974655;28;20209;-71
2022/04/20 06:17:38;;;;;;;12.13;8.20;;;9.80;99.90;;;;;;4974001;28;20239;-71
2022/04/20 06:20:06;;;;;;;8.95;8.07;;;10.40;99.90;;;;;;4961814;28;20655;-71
2022/04/20 06:22:34;;;;;;;9.97;8.50;;;10.90;99.90;;;;;;4954607;28;20296;-70
2022/04/20 06:25:00;;;;;;;8.67;7.87;;;10.90;99.90;;;;;;4954403;28;20464;-70
2022/04/20 06:27:30;;;;;;;8.10;7.40;;;11.40;99.90;;;;;;4953453;28;20579;-71
2022/04/20 06:29:57;;;;;;;9.03;8.23;;;11.60;99.90;;;;;;4963566;28;20555;-71
2022/04/20 06:32:24;;;;;;;9.13;8.30;;;11.90;99.90;;;;;;4973256;28;20467;-70
2022/04/20 06:34:51;;;;;;;10.40;8.20;;;11.50;99.90;;;;;;4973846;28;20478;-70
2022/04/20 06:37:19;;;;;;;8.00;7.40;;;11.10;99.90;;;;;;4973267;28;20488;-71
2022/04/20 06:39:48;;;;;;;8.57;7.77;;;10.90;99.90;;;;;;4964212;28;20519;-71
2022/04/20 06:42:14;;;;;;;11.03;8.50;;;10.70;99.90;;;;;;4953396;28;20515;-71
2022/04/20 06:44:41;;;;;;;8.70;7.87;;;10.40;99.90;;;;;;4948306;28;20469;-71
2022/04/20 06:47:08;;;;;;;8.20;7.43;;;10.40;99.90;;;;;;4953553;28;20555;-71
2022/04/20 06:49:35;;;;;;;9.23;8.43;;;10.20;99.90;;;;;;4959122;28;20834;-72
2022/04/20 07:00:17;;;;;;;7.82;7.20;;;9.60;99.90;;;;;;4967362;28;20208;-72
2022/04/20 07:02:43;;;;;;;8.82;6.53;;;9.60;99.90;;;;;;4964524;28;20251;-71
2022/04/20 07:05:10;;;;;;;8.38;7.57;;;9.60;99.90;;;;;;4966115;28;20284;-71
2022/04/20 07:07:37;;;;;;;7.15;6.45;;;9.60;99.90;;;;;;4942450;28;20225;-71
2022/04/20 07:10:06;;;;;;;7.70;6.53;;;9.50;99.90;;;;;;4954311;28;20211;-72
2022/04/20 07:12:33;;;;;;;7.30;6.60;;;9.50;99.90;;;;;;4961667;28;20268;-71
2022/04/20 07:15:00;;;;;;;7.53;6.95;;;9.50;99.90;;;;;;4951831;28;20209;-71
2022/04/20 07:17:26;;;;;;;8.63;7.45;;;9.50;99.90;;;;;;4953567;28;20232;-71
2022/04/20 07:19:53;;;;;;;7.72;7.13;;;9.50;99.90;;;;;;4960721;28;20212;-71
2022/04/20 07:22:20;;;;;;;14.43;8.10;;;9.60;99.90;;;;;;4959347;28;20209;-71
2022/04/20 07:24:46;;;;;;;10.93;7.57;;;9.70;99.90;;;;;;4950974;28;20265;-71
2022/04/20 07:27:15;;;;;;;8.30;7.60;;;9.80;99.90;;;;;;4958045;28;20701;-71
2022/04/20 07:29:41;;;;;;;8.55;7.47;;;9.80;99.90;;;;;;4940833;28;20201;-71
2022/04/20 07:32:09;;;;;;;7.40;6.75;;;9.80;99.90;;;;;;4955416;28;20236;-70
2022/04/20 07:34:36;;;;;;;8.15;7.38;;;9.90;99.90;;;;;;4957371;28;20208;-71
2022/04/20 07:37:03;;;;;;;7.60;6.75;;;9.90;99.90;;;;;;4948289;28;20229;-71
2022/04/20 07:39:30;;;;;;;7.20;6.63;;;10.00;99.90;;;;;;4950301;28;20252;-73
2022/04/20 07:41:57;;;;;;;8.18;6.70;;;10.10;99.90;;;;;;4949118;28;20225;-72
2022/04/20 07:44:25;;;;;;;6.90;5.30;;;10.10;99.90;;;;;;4966711;28;20236;-70
2022/04/20 07:46:51;;;;;;;6.78;6.22;;;10.10;99.90;;;;;;4946739;28;20234;-71
2022/04/20 08:10:02;;;;;;;6.75;6.07;;;10.60;99.90;;;;;;4923850;29;20206;-76
2022/04/20 08:12:34;;;;;;;7.60;6.50;;;10.60;99.90;;;;;;4962614;28;20197;-76
2022/04/20 08:15:00;;;;;;;7.35;6.75;;;10.70;99.90;;;;;;4934322;29;20206;-71
2022/04/20 08:17:27;;;;;;;6.03;5.45;;;10.90;99.90;;;;;;4947903;28;20225;-69
2022/04/20 08:19:54;;;;;;;6.43;5.93;;;11.00;99.90;;;;;;4941720;29;20276;-68
2022/04/20 08:22:22;;;;;;;8.27;5.68;;;11.20;99.90;;;;;;4948648;28;20202;-69
2022/04/20 08:24:48;;;;;;;6.72;6.10;;;11.30;99.90;;;;;;4952921;28;20212;-69
2022/04/20 08:27:16;;;;;;;7.22;6.45;;;11.30;99.90;;;;;;4950937;28;20279;-69
2022/04/20 08:29:45;;;;;;;5.50;5.10;;;11.50;99.90;;;;;;4968584;28;20693;-69
2022/04/20 08:32:11;;;;;;;4.80;4.35;;;11.70;99.90;;;;;;4956675;28;20213;-69
2022/04/20 08:34:38;;;;;;;4.07;3.88;;;12.00;99.90;;;;;;4952841;28;20209;-69
2022/04/20 08:37:05;;;;;;;5.47;5.17;;;12.40;99.90;;;;;;4938992;28;20257;-69
2022/04/20 08:39:31;;;;;;;4.90;4.50;;;12.60;99.90;;;;;;4943005;28;20492;-69
2022/04/20 08:42:01;;;;;;;6.57;4.50;;;12.70;99.90;;;;;;4940581;28;20466;-69
2022/04/20 08:44:29;;;;;;;4.00;3.80;;;12.80;99.90;;;;;;4933581;29;20465;-68
2022/04/20 08:47:00;;;;;;;4.03;3.80;;;12.70;99.90;;;;;;4935476;29;20486;-69
2022/04/20 08:49:27;;;;;;;3.93;3.73;;;12.70;99.90;;;;;;4944241;28;20466;-69
2022/04/20 08:54:39;;;;;;;3.67;3.37;;;12.70;99.90;;;;;;4939607;28;20810;-69
2022/04/20 08:57:20;;;;;;;4.43;4.03;;;12.60;99.90;;;;;;4967222;28;20480;-69
2022/04/20 08:59:49;;;;;;;4.37;4.00;;;12.60;99.90;;;;;;4971278;28;21050;-69
2022/04/20 09:02:17;;;;;;;2.57;2.47;;;12.60;99.90;;;;;;4972028;28;20486;-69
2022/04/20 09:04:44;;;;;;;3.90;3.70;;;12.50;99.90;;;;;;4971452;28;20984;-69
2022/04/20 09:07:14;;;;;;;3.30;3.10;;;12.40;99.90;;;;;;4971042;28;20484;-69
2022/04/20 09:09:41;;;;;;;3.53;3.20;;;12.50;99.90;;;;;;4971125;28;21003;-69
2022/04/20 09:12:10;;;;;;;2.10;2.08;;;12.60;99.90;;;;;;4971350;28;20216;-69
2022/04/20 09:14:38;;;;;;;2.47;2.37;;;12.70;99.90;;;;;;4952106;28;20297;-69
2022/04/20 09:17:06;;;;;;;3.05;2.85;;;12.80;99.90;;;;;;4934886;29;20854;-69
2022/04/20 09:19:33;;;;;;;3.53;3.33;;;12.80;99.90;;;;;;4953685;28;20599;-69
2022/04/20 09:21:59;;;;;;;3.20;3.00;;;12.70;99.90;;;;;;4956081;28;20229;-69
2022/04/20 09:24:26;;;;;;;3.40;3.20;;;12.70;99.90;;;;;;4957299;28;20461;-69
2022/04/20 09:26:54;;;;;;;3.30;3.10;;;12.70;99.90;;;;;;4946799;28;20493;-69
2022/04/20 09:29:21;;;;;;;2.70;2.60;;;12.80;99.90;;;;;;4936862;29;20464;-69
2022/04/20 09:31:49;;;;;;;2.00;2.00;;;12.90;99.90;;;;;;4936256;29;20469;-69
2022/04/20 09:34:53;;;;;;;1.70;1.63;;;12.90;99.90;;;;;;4949428;28;20861;-68
2022/04/20 09:37:21;;;;;;;1.50;1.50;;;13.00;99.90;;;;;;4955896;28;20491;-69
2022/04/20 09:39:49;;;;;;;1.60;1.60;;;13.00;99.80;;;;;;4954398;28;20229;-69
2022/04/20 09:42:16;;;;;;;1.63;1.63;;;13.00;99.90;;;;;;4955192;28;20548;-69
2022/04/20 09:44:54;;;;;;;1.90;1.67;;;13.00;99.80;;;;;;4962295;28;20668;-69
2022/04/20 09:50:09;;;;;;;1.77;1.67;;;13.00;99.90;;;;;;4955093;29;20583;-69
2022/04/20 09:52:37;;;;;;;5.23;2.03;;;13.10;99.90;;;;;;4955213;28;21127;-69
2022/04/20 09:55:06;;;;;;;2.22;2.05;;;13.10;99.90;;;;;;4960236;28;20503;-69
2022/04/20 09:57:33;;;;;;;1.67;1.67;;;13.20;99.90;;;;;;4954905;28;20627;-69
2022/04/20 10:00:02;;;;;;;2.50;2.40;;;13.30;99.90;;;;;;4954763;28;20579;-69
2022/04/20 10:02:30;;;;;;;1.43;1.43;;;13.40;99.90;;;;;;4946235;28;21042;-71
2022/04/20 10:04:57;;;;;;;2.80;2.60;;;13.40;99.50;;;;;;4959058;28;20469;-71
2022/04/20 10:07:25;;;;;;;2.30;2.20;;;13.30;99.90;;;;;;4948321;28;20518;-73
2022/04/20 10:09:52;;;;;;;2.60;2.50;;;13.40;99.90;;;;;;4965306;28;20263;-71
2022/04/20 10:12:19;;;;;;;2.73;2.50;;;13.40;99.90;;;;;;4971269;28;20825;-71
2022/04/20 10:17:38;;;;;;;2.63;2.43;;;13.50;99.90;;;;;;4973797;28;20466;-70
2022/04/20 10:20:06;;;;;;;2.20;2.20;;;13.70;98.30;;;;;;4973660;28;20583;-71
2022/04/20 10:22:34;;;;;;;1.53;1.43;;;13.70;97.40;;;;;;4973555;28;20468;-71
2022/04/20 10:25:04;;;;;;;1.57;1.57;;;13.70;97.70;;;;;;4973732;28;20471;-71
2022/04/20 10:27:43;;;;;;;1.57;1.57;;;13.80;97.30;;;;;;4972953;28;21014;-71
2022/04/20 10:30:16;;;;;;;2.03;1.93;;;13.90;95.70;;;;;;4973643;28;20542;-71
2022/04/20 10:32:51;;;;;;;1.20;1.20;;;14.00;95.30;;;;;;4972143;28;20464;-69
2022/04/20 10:35:18;;;;;;;1.50;1.50;;;14.10;93.60;;;;;;4974339;28;20538;-69
2022/04/20 10:38:11;;;;;;;1.73;1.73;;;14.00;93.30;;;;;;4960068;28;20487;-70
2022/04/20 10:41:02;;;;;;;2.10;2.00;;;14.10;94.00;;;;;;4954330;28;20898;-69
2022/04/20 10:43:30;;;;;;;2.53;2.10;;;14.10;94.40;;;;;;4954046;28;20826;-69
2022/04/20 10:46:09;;;;;;;1.40;1.30;;;14.30;94.30;;;;;;4954403;28;20488;-69
2022/04/20 10:48:55;;;;;;;1.60;1.50;;;14.30;93.80;;;;;;4952687;28;20452;-71
2022/04/20 10:51:24;;;;;;;2.80;2.60;;;14.30;93.90;;;;;;4953780;28;20460;-71
2022/04/20 10:53:54;;;;;;;2.57;2.40;;;14.40;93.60;;;;;;4954202;28;20460;-71
2022/04/20 10:56:21;;;;;;;2.00;1.90;;;14.50;93.70;;;;;;4968895;28;20480;-69
2022/04/20 10:58:53;;;;;;;2.90;2.80;;;14.40;94.00;;;;;;4973081;28;20520;-71
2022/04/20 11:01:20;;;;;;;2.47;2.40;;;14.50;93.40;;;;;;4973070;28;20526;-71
2022/04/20 11:04:06;;;;;;;4.27;2.60;;;14.60;93.40;;;;;;4973184;28;20468;-70
2022/04/20 11:07:12;;;;;;;2.30;2.20;;;14.70;93.30;;;;;;4955966;28;20991;-69
2022/04/20 11:10:05;;;;;;;2.67;2.43;;;14.70;93.50;;;;;;4953563;28;20461;-70
2022/04/20 11:18:41;;;;;;;2.67;2.57;;;14.90;94.40;;;;;;4921167;29;20529;-70
2022/04/20 11:21:19;;;;;;;2.60;2.50;;;14.90;94.50;;;;;;4911409;29;20506;-70
2022/04/20 11:23:50;;;;;;;2.70;2.50;;;15.00;95.20;;;;;;4927881;29;20525;-70
2022/04/20 11:26:24;;;;;;;4.33;3.17;;;15.00;94.90;;;;;;4933208;29;20497;-70
2022/04/20 11:28:52;;;;;;;2.70;2.60;;;15.20;94.90;;;;;;4934241;29;20461;-70
2022/04/20 11:31:19;;;;;;;2.00;2.00;;;15.20;95.00;;;;;;4951107;28;20480;-70
2022/04/20 11:33:46;;;;;;;2.73;2.63;;;15.40;94.90;;;;;;4957514;28;20459;-70
2022/04/20 11:36:14;;;;;;;2.70;2.70;;;15.40;95.10;;;;;;4956809;28;20484;-70
2022/04/20 11:38:42;;;;;;;3.07;2.87;;;15.50;95.30;;;;;;4953330;28;20477;-70
2022/04/20 11:41:10;;;;;;;3.10;2.40;;;15.70;95.60;;;;;;4952025;28;20926;-70
2022/04/20 11:43:39;;;;;;;3.30;3.20;;;15.80;95.30;;;;;;4953347;28;20552;-70
2022/04/20 11:46:07;;;;;;;2.97;2.80;;;15.90;95.40;;;;;;4955988;28;21067;-70
2022/04/20 11:48:35;;;;;;;2.63;2.53;;;15.90;95.40;;;;;;4964142;28;20468;-70
2022/04/20 11:51:03;;;;;;;2.60;2.50;;;15.90;95.60;;;;;;4965493;28;20479;-70
2022/04/20 11:53:33;;;;;;;3.80;3.70;;;15.90;96.20;;;;;;4955631;28;20512;-70
2022/04/20 11:56:01;;;;;;;2.60;2.50;;;15.90;96.10;;;;;;4957823;28;20487;-70
2022/04/20 11:58:28;;;;;;;3.83;3.50;;;15.70;97.60;;;;;;4972108;28;20467;-70
2022/04/20 12:01:03;;;;;;;2.77;2.77;;;15.90;97.90;;;;;;4971702;28;21012;-70
2022/04/20 12:03:31;;;;;;;3.03;2.70;;;16.00;97.50;;;;;;4972475;28;20470;-70
2022/04/20 12:06:05;;;;;;;2.80;2.70;;;16.10;97.50;;;;;;4972160;28;20488;-70
2022/04/20 12:08:33;;;;;;;3.13;2.93;;;16.00;97.00;;;;;;4972231;28;20462;-70
2022/04/20 12:11:05;;;;;;;3.47;3.17;;;15.90;97.30;;;;;;4971961;28;20518;-70
2022/04/20 12:13:32;;;;;;;3.00;2.90;;;16.00;97.80;;;;;;4972429;28;20464;-70
2022/04/20 12:16:05;;;;;;;3.03;2.93;;;16.00;97.20;;;;;;4971984;28;20480;-70
2022/04/20 12:18:36;;;;;;;3.30;3.20;;;15.80;97.40;;;;;;4972154;28;20541;-70
2022/04/20 12:21:04;;;;;;;3.30;3.10;;;15.70;98.20;;;;;;4971959;28;20579;-70
2022/04/20 12:23:34;;;;;;;2.83;2.83;;;15.50;98.30;;;;;;4972204;28;20563;-70
2022/04/20 12:26:04;;;;;;;3.70;3.40;;;15.50;98.50;;;;;;4954224;28;20497;-69
2022/04/20 12:28:43;;;;;;;4.77;4.17;;;15.30;98.60;;;;;;4952791;28;20491;-69
2022/04/20 12:31:13;;;;;;;2.93;2.63;;;15.20;98.80;;;;;;4952172;28;20484;-70
2022/04/20 12:33:41;;;;;;;3.40;2.97;;;15.10;99.30;;;;;;4952708;28;20894;-69
2022/04/20 12:36:09;;;;;;;1.83;1.83;;;15.10;99.20;;;;;;4962670;28;20968;-70
2022/04/20 12:38:44;;;;;;;3.40;2.57;;;15.10;98.80;;;;;;4953077;28;20486;-70
2022/04/20 12:41:45;;;;;;;2.20;2.17;;;14.90;98.40;;;;;;4952496;28;20581;-70
2022/04/20 12:44:46;;;;;;;1.90;1.80;;;14.90;98.80;;;;;;4955317;28;20467;-70
2022/04/20 12:47:34;;;;;;;1.67;1.67;;;14.90;99.00;;;;;;4971971;28;20483;-70
2022/04/20 12:50:21;;;;;;;2.27;2.13;;;14.80;98.20;;;;;;4972422;28;20459;-70
2022/04/20 12:53:02;;;;;;;2.13;2.03;;;14.70;98.60;;;;;;4975860;28;20459;-70
2022/04/20 13:02:01;;;;;;;1.63;1.63;;;14.90;98.00;;;;;;4965811;28;20463;-69
2022/04/20 13:04:12;;;;;;;1.47;1.47;;;14.90;97.40;;;;;;4956258;28;20499;-71
2022/04/20 13:06:39;;;;;;;1.20;1.20;;;15.10;97.10;;;;;;4975363;28;20495;-70
2022/04/20 13:09:06;;;;;;;1.70;1.60;;;15.10;96.80;;;;;;4975636;28;20517;-70
2022/04/20 13:11:32;;;;;;;1.37;1.37;;;15.20;97.00;;;;;;4975160;28;20884;-69
2022/04/20 13:13:59;;;;;;;1.60;1.60;;;15.20;96.80;;;;;;4975219;28;20479;-70
2022/04/20 13:16:26;;;;;;;1.37;1.37;;;15.30;96.20;;;;;;4975307;28;20498;-70
2022/04/20 13:18:53;;;;;;;1.60;1.50;;;15.30;95.50;;;;;;4975424;28;20498;-69
2022/04/20 13:21:21;;;;;;;1.47;1.40;;;15.40;96.00;;;;;;4970188;28;20486;-69
2022/04/20 13:23:49;;;;;;;1.23;1.23;;;15.50;96.30;;;;;;4955809;28;20849;-70
2022/04/20 13:29:00;;;;;;;1.33;1.33;;;16.00;94.00;;;;;;4955785;29;20452;-70
2022/04/20 13:31:27;;;;;;;1.40;1.40;;;16.20;94.00;;;;;;4958259;28;20517;-70
2022/04/20 13:33:54;;;;;;;2.10;2.00;;;16.00;94.40;;;;;;4960943;28;20486;-70
2022/04/20 13:36:22;;;;;;;1.70;1.60;;;15.80;95.10;;;;;;4965571;28;20491;-70
2022/04/20 13:38:48;;;;;;;1.60;1.60;;;15.60;95.50;;;;;;4956996;28;20523;-70
2022/04/20 13:41:15;;;;;;;2.20;1.83;;;15.50;95.50;;;;;;4956693;28;20519;-70
2022/04/20 13:43:42;;;;;;;1.37;1.37;;;15.60;95.90;;;;;;4956206;28;20465;-70
2022/04/20 13:46:08;;;;;;;1.77;1.77;;;15.60;95.70;;;;;;4957007;28;20520;-70
2022/04/20 13:48:35;;;;;;;1.50;1.50;;;15.70;96.10;;;;;;4956054;28;21146;-70
2022/04/20 13:51:02;;;;;;;1.60;1.60;;;15.80;95.90;;;;;;4955290;28;20457;-70
2022/04/20 13:53:30;;;;;;;1.90;1.90;;;15.80;95.40;;;;;;4955183;28;20475;-70
2022/04/20 13:55:57;;;;;;;1.77;1.67;;;15.80;95.80;;;;;;4955016;28;20496;-70
2022/04/20 13:58:23;;;;;;;2.33;2.13;;;15.80;95.40;;;;;;4954808;28;20504;-70
2022/04/20 14:00:51;;;;;;;1.40;1.40;;;15.80;95.80;;;;;;4954645;28;20496;-69